Time;durP1;ratioP1;P1;durP2;ratioP2;P2;SDS_P1;SDS_P2;PMS_P1;PMS_P2;Temp;Humidity;BMP_temperature;BMP_pressure;BME280_temperature;BME280_humidity;BME280_pressure;Samples;Min_cycle;Max_cycle;Signal;HPM_P1;HPM_P2
2024/03/01 00:02:11;;;;;;;33.33;16.07;;;8.80;99.90;;;;;;5014022;28;20545;-65
2024/03/01 00:04:45;;;;;;;36.33;15.93;;;8.80;99.90;;;;;;5014680;28;20830;-64
2024/03/01 00:07:14;;;;;;;31.13;15.60;;;8.80;99.90;;;;;;5014009;28;20445;-64
2024/03/01 00:09:41;;;;;;;27.60;14.20;;;8.80;99.90;;;;;;5013988;28;20488;-63
2024/03/01 00:12:10;;;;;;;27.17;14.00;;;8.80;99.90;;;;;;5022228;28;20822;-64
2024/03/01 00:14:39;;;;;;;29.27;14.77;;;8.90;99.90;;;;;;5014058;28;20526;-64
2024/03/01 00:17:06;;;;;;;46.60;20.80;;;8.80;99.90;;;;;;5013914;28;20477;-63
2024/03/01 00:19:33;;;;;;;29.20;14.90;;;8.80;99.90;;;;;;5013800;28;20500;-64
2024/03/01 00:22:01;;;;;;;36.90;14.60;;;8.80;99.90;;;;;;5013459;28;20504;-64
2024/03/01 00:24:28;;;;;;;30.63;13.93;;;8.90;99.90;;;;;;5018776;28;20441;-64
2024/03/01 00:26:55;;;;;;;26.40;14.37;;;8.80;99.90;;;;;;5017035;28;20816;-66
2024/03/01 00:29:22;;;;;;;35.67;16.13;;;8.90;99.90;;;;;;5013963;28;20495;-64
2024/03/01 00:31:49;;;;;;;34.50;18.27;;;8.90;99.90;;;;;;5013625;28;20525;-64
2024/03/01 00:34:16;;;;;;;35.73;18.33;;;8.90;99.90;;;;;;5013830;28;20477;-64
2024/03/01 00:36:42;;;;;;;34.03;17.07;;;8.90;99.90;;;;;;5021008;28;20773;-64
2024/03/01 00:39:11;;;;;;;36.43;15.97;;;8.90;99.90;;;;;;5023670;28;20444;-65
2024/03/01 00:41:38;;;;;;;37.03;17.67;;;8.90;99.90;;;;;;5013365;28;20485;-65
2024/03/01 00:44:05;;;;;;;39.70;17.53;;;8.90;99.90;;;;;;5012330;28;20484;-65
2024/03/01 00:46:32;;;;;;;28.77;15.90;;;8.90;99.90;;;;;;5013424;28;20884;-65
2024/03/01 00:48:59;;;;;;;39.93;21.13;;;8.90;99.90;;;;;;5013437;28;20482;-64
2024/03/01 00:51:26;;;;;;;37.77;19.90;;;9.00;99.90;;;;;;5013471;28;20446;-64
2024/03/01 00:53:53;;;;;;;35.57;16.03;;;9.00;99.90;;;;;;5012872;28;20495;-64
2024/03/01 00:56:21;;;;;;;40.13;18.57;;;8.90;99.90;;;;;;5013525;28;20952;-65
2024/03/01 00:58:48;;;;;;;36.77;18.73;;;8.90;99.90;;;;;;5013710;28;20950;-64
2024/03/01 01:01:15;;;;;;;38.00;17.33;;;8.90;99.90;;;;;;5013307;28;20437;-64
2024/03/01 01:03:42;;;;;;;34.97;16.53;;;8.90;99.90;;;;;;5013063;28;20540;-65
2024/03/01 01:06:09;;;;;;;49.67;16.97;;;8.80;99.90;;;;;;5021745;28;20962;-65
2024/03/01 01:08:35;;;;;;;36.50;17.67;;;8.90;99.90;;;;;;5014488;28;20465;-65
2024/03/01 01:11:02;;;;;;;37.40;18.87;;;8.80;99.90;;;;;;5022413;28;20481;-65
2024/03/01 01:13:31;;;;;;;42.13;19.73;;;8.80;99.90;;;;;;5021888;28;20989;-65
2024/03/01 01:15:57;;;;;;;39.00;17.60;;;8.80;99.90;;;;;;5013458;28;20846;-64
2024/03/01 01:18:24;;;;;;;41.40;19.27;;;8.80;99.90;;;;;;5013355;28;20449;-64
2024/03/01 01:20:52;;;;;;;37.57;16.63;;;8.70;99.90;;;;;;5013700;28;21020;-65
2024/03/01 01:23:18;;;;;;;35.60;18.20;;;8.70;99.90;;;;;;5015979;28;20464;-65
2024/03/01 01:25:45;;;;;;;52.90;24.43;;;8.70;99.90;;;;;;5018252;28;20473;-64
2024/03/01 01:28:13;;;;;;;39.70;17.90;;;8.70;99.90;;;;;;5012963;28;20468;-65
2024/03/01 01:30:42;;;;;;;47.00;20.37;;;8.70;99.90;;;;;;5018874;28;20940;-64
2024/03/01 01:33:09;;;;;;;49.03;21.50;;;8.60;99.90;;;;;;5013661;28;20497;-64
2024/03/01 01:35:36;;;;;;;43.87;18.93;;;8.60;99.90;;;;;;5012746;28;20811;-64
2024/03/01 01:38:03;;;;;;;49.20;20.63;;;8.60;99.90;;;;;;5012576;28;20864;-64
2024/03/01 01:40:31;;;;;;;46.00;20.63;;;8.60;99.90;;;;;;5012446;28;20504;-65
2024/03/01 01:42:58;;;;;;;46.60;22.13;;;8.60;99.90;;;;;;5011267;28;20472;-64
2024/03/01 01:45:26;;;;;;;57.17;22.87;;;8.50;99.90;;;;;;5013035;28;20509;-65
2024/03/01 01:47:54;;;;;;;56.03;23.73;;;8.50;99.90;;;;;;5012651;28;21000;-64
2024/03/01 01:50:21;;;;;;;59.77;19.70;;;8.60;99.90;;;;;;5012484;28;20873;-64
2024/03/01 01:52:49;;;;;;;70.07;24.33;;;8.60;99.90;;;;;;5011605;28;20461;-64
2024/03/01 01:55:16;;;;;;;57.33;22.67;;;8.60;99.90;;;;;;5011542;28;20489;-64
2024/03/01 01:57:45;;;;;;;57.40;22.80;;;8.60;99.90;;;;;;5012099;28;20604;-64
2024/03/01 02:00:14;;;;;;;53.20;23.40;;;8.60;99.90;;;;;;5012072;28;20861;-64
2024/03/01 02:02:42;;;;;;;53.80;22.40;;;8.60;99.90;;;;;;5011756;28;20537;-65
2024/03/01 02:05:11;;;;;;;51.27;21.10;;;8.60;99.90;;;;;;5012223;28;20442;-65
2024/03/01 02:07:38;;;;;;;51.00;22.20;;;8.70;99.90;;;;;;5018331;28;20445;-64
2024/03/01 02:10:16;;;;;;;49.33;22.93;;;8.70;99.90;;;;;;5014268;28;20845;-64
2024/03/01 02:12:54;;;;;;;71.13;25.50;;;8.70;99.90;;;;;;5020381;28;20484;-65
2024/03/01 02:15:21;;;;;;;54.60;22.10;;;8.70;99.90;;;;;;5020504;28;20481;-64
2024/03/01 02:17:48;;;;;;;41.63;21.07;;;8.70;99.90;;;;;;5011828;28;20446;-65
2024/03/01 02:20:17;;;;;;;59.83;24.17;;;8.70;99.90;;;;;;5011699;28;20887;-65
2024/03/01 02:22:50;;;;;;;51.87;24.60;;;8.60;99.90;;;;;;5019448;28;20544;-65
2024/03/01 02:25:19;;;;;;;68.77;22.67;;;8.60;99.90;;;;;;5011718;28;20477;-64
2024/03/01 02:27:47;;;;;;;54.03;25.10;;;8.60;99.90;;;;;;5018806;28;20456;-64
2024/03/01 02:30:14;;;;;;;54.97;22.40;;;8.60;99.90;;;;;;5012267;28;20864;-64
2024/03/01 02:32:41;;;;;;;62.77;24.23;;;8.60;99.90;;;;;;5011297;28;20544;-64
2024/03/01 02:35:08;;;;;;;52.47;23.70;;;8.60;99.90;;;;;;5011100;28;20545;-64
2024/03/01 02:37:35;;;;;;;54.07;24.27;;;8.60;99.90;;;;;;5011498;28;20861;-64
2024/03/01 02:40:04;;;;;;;59.10;23.47;;;8.60;99.90;;;;;;5011567;28;20925;-64
2024/03/01 02:42:33;;;;;;;60.67;22.50;;;8.70;99.90;;;;;;5010896;28;20499;-66
2024/03/01 02:45:01;;;;;;;67.17;25.43;;;8.70;99.90;;;;;;5011369;28;20456;-64
2024/03/01 02:47:28;;;;;;;67.47;25.90;;;8.70;99.90;;;;;;5011324;28;20499;-64
2024/03/01 02:49:55;;;;;;;61.43;26.20;;;8.70;99.90;;;;;;5011059;28;20541;-64
2024/03/01 02:52:21;;;;;;;52.87;24.10;;;8.60;99.90;;;;;;5010938;28;20472;-65
2024/03/01 02:54:48;;;;;;;63.53;23.43;;;8.60;99.90;;;;;;5011042;28;20473;-65
2024/03/01 02:57:15;;;;;;;63.40;25.67;;;8.60;99.90;;;;;;5019409;28;20289;-64
2024/03/01 02:59:43;;;;;;;70.17;24.50;;;8.70;99.90;;;;;;5011427;28;20537;-64
2024/03/01 03:02:10;;;;;;;79.80;28.00;;;8.60;99.90;;;;;;5010987;28;20552;-65
2024/03/01 03:04:38;;;;;;;65.73;26.00;;;8.70;99.90;;;;;;5010990;28;20479;-65
2024/03/01 03:07:05;;;;;;;72.80;26.03;;;8.60;99.90;;;;;;5011185;28;20453;-64
2024/03/01 03:09:32;;;;;;;60.30;25.37;;;8.60;99.90;;;;;;5019313;28;20496;-65
2024/03/01 03:11:59;;;;;;;64.47;25.53;;;8.50;99.90;;;;;;5010595;28;20453;-65
2024/03/01 03:14:25;;;;;;;60.67;26.67;;;8.60;99.90;;;;;;5010725;28;20485;-65
2024/03/01 03:16:54;;;;;;;68.80;27.50;;;8.60;99.90;;;;;;5011030;28;20540;-64
2024/03/01 03:19:21;;;;;;;72.03;27.77;;;8.60;99.90;;;;;;5011389;28;20530;-64
2024/03/01 03:21:48;;;;;;;55.67;25.93;;;8.60;99.90;;;;;;5010818;28;20525;-64
2024/03/01 03:24:16;;;;;;;70.87;26.33;;;8.60;99.90;;;;;;5012581;28;20472;-63
2024/03/01 03:26:42;;;;;;;58.83;24.57;;;8.60;99.90;;;;;;5016260;28;20528;-65
2024/03/01 03:29:09;;;;;;;60.60;25.40;;;8.60;99.90;;;;;;5010943;28;20563;-65
2024/03/01 03:31:36;;;;;;;82.87;28.77;;;8.50;99.90;;;;;;5010888;28;20520;-65
2024/03/01 03:34:05;;;;;;;69.00;26.73;;;8.60;99.90;;;;;;5010514;28;22447;-65
2024/03/01 03:36:32;;;;;;;74.23;28.30;;;8.60;99.90;;;;;;5011385;28;20533;-65
2024/03/01 03:38:58;;;;;;;65.97;28.40;;;8.60;99.90;;;;;;5011240;28;20473;-65
2024/03/01 03:41:26;;;;;;;68.47;26.57;;;8.60;99.90;;;;;;5014950;28;20457;-64
2024/03/01 03:43:53;;;;;;;65.13;25.87;;;8.70;99.90;;;;;;5014316;28;20480;-64
2024/03/01 03:46:20;;;;;;;61.77;26.00;;;8.70;99.90;;;;;;5019144;28;20816;-65
2024/03/01 03:48:47;;;;;;;68.10;27.70;;;8.70;99.90;;;;;;5010499;28;20445;-65
2024/03/01 03:51:25;;;;;;;82.97;30.00;;;8.80;99.90;;;;;;5010649;28;20525;-63
2024/03/01 03:53:52;;;;;;;58.00;25.73;;;8.80;99.90;;;;;;5010234;28;20473;-64
2024/03/01 03:56:19;;;;;;;70.87;26.23;;;8.80;99.90;;;;;;5018796;28;20528;-65
2024/03/01 03:58:46;;;;;;;71.27;24.97;;;8.80;99.90;;;;;;5010543;28;20537;-66
2024/03/01 04:01:13;;;;;;;64.20;29.03;;;8.90;99.90;;;;;;5010734;28;20476;-64
2024/03/01 04:03:40;;;;;;;69.93;27.40;;;8.90;99.90;;;;;;5010774;28;20464;-63
2024/03/01 04:06:08;;;;;;;69.17;29.13;;;8.90;99.90;;;;;;5010909;28;20488;-65
2024/03/01 04:08:37;;;;;;;68.73;30.17;;;8.90;99.90;;;;;;5010752;28;20445;-64
2024/03/01 04:11:05;;;;;;;66.93;30.30;;;9.00;99.90;;;;;;5010395;28;20538;-65
2024/03/01 04:13:32;;;;;;;65.20;28.40;;;8.90;99.90;;;;;;5010207;28;20477;-65
2024/03/01 04:15:59;;;;;;;68.10;26.70;;;9.00;99.90;;;;;;5010621;28;20488;-64
2024/03/01 04:18:27;;;;;;;73.33;28.40;;;9.00;99.90;;;;;;5013562;28;20531;-64
2024/03/01 04:20:55;;;;;;;62.90;27.83;;;9.00;99.90;;;;;;5014437;28;20803;-65
2024/03/01 04:23:22;;;;;;;63.27;29.07;;;9.00;99.90;;;;;;5005999;28;21078;-65
2024/03/01 04:25:51;;;;;;;58.27;26.30;;;9.00;99.90;;;;;;5023064;28;20852;-65
2024/03/01 04:28:18;;;;;;;69.90;28.77;;;8.90;99.90;;;;;;5014442;28;20833;-64
2024/03/01 04:30:46;;;;;;;62.47;28.30;;;8.90;99.90;;;;;;5014217;28;20452;-64
2024/03/01 04:33:13;;;;;;;62.10;30.30;;;9.00;99.90;;;;;;5013564;28;20954;-64
2024/03/01 04:35:40;;;;;;;81.40;28.40;;;9.00;99.90;;;;;;5013996;28;20470;-64
2024/03/01 04:38:07;;;;;;;72.20;29.73;;;8.90;99.90;;;;;;5013346;28;20445;-63
2024/03/01 04:40:37;;;;;;;72.97;31.33;;;8.80;99.90;;;;;;5013788;28;20441;-64
2024/03/01 04:43:05;;;;;;;74.57;32.33;;;8.80;99.90;;;;;;5013387;28;21026;-64
2024/03/01 04:45:32;;;;;;;66.20;28.37;;;8.70;99.90;;;;;;5013483;28;20473;-65
2024/03/01 04:47:59;;;;;;;76.87;28.90;;;8.80;99.90;;;;;;5013435;28;20986;-65
2024/03/01 04:50:26;;;;;;;77.60;35.70;;;8.80;99.90;;;;;;5013542;28;20528;-64
2024/03/01 04:52:53;;;;;;;87.93;32.07;;;8.80;99.90;;;;;;5020673;28;20551;-63
2024/03/01 04:55:20;;;;;;;86.07;30.40;;;8.80;99.90;;;;;;5021753;28;20901;-64
2024/03/01 04:57:47;;;;;;;61.63;27.27;;;8.80;99.90;;;;;;5013269;28;20528;-64
2024/03/01 05:00:21;;;;;;;71.90;28.60;;;8.90;99.90;;;;;;5013561;28;20969;-64
2024/03/01 05:02:48;;;;;;;76.53;30.63;;;8.90;99.90;;;;;;5013236;28;20497;-66
2024/03/01 05:05:16;;;;;;;86.63;30.90;;;8.80;99.90;;;;;;5013044;28;20520;-64
2024/03/01 05:07:47;;;;;;;70.60;30.30;;;8.80;99.90;;;;;;5021741;28;20450;-65
2024/03/01 05:10:21;;;;;;;73.37;29.37;;;8.80;99.90;;;;;;5013084;28;20458;-65
2024/03/01 05:12:49;;;;;;;79.00;30.20;;;8.80;99.90;;;;;;5012666;28;20466;-65
2024/03/01 05:15:18;;;;;;;67.23;26.67;;;8.80;99.90;;;;;;5012982;28;20500;-64
2024/03/01 05:17:46;;;;;;;71.43;26.23;;;8.90;99.90;;;;;;5013008;28;20529;-64
2024/03/01 05:20:14;;;;;;;83.07;30.37;;;8.90;99.90;;;;;;5013527;28;20476;-64
2024/03/01 05:22:42;;;;;;;69.40;30.63;;;8.90;99.90;;;;;;5012731;28;21037;-64
2024/03/01 05:25:16;;;;;;;66.33;28.67;;;8.90;99.90;;;;;;5020491;28;20539;-64
2024/03/01 05:27:43;;;;;;;80.70;31.67;;;8.90;99.90;;;;;;5012958;28;20536;-64
2024/03/01 05:30:12;;;;;;;79.83;27.20;;;8.90;99.90;;;;;;5013513;28;20882;-65
2024/03/01 05:32:43;;;;;;;76.20;30.20;;;8.90;99.90;;;;;;5013094;28;20477;-65
2024/03/01 05:35:10;;;;;;;74.47;30.90;;;9.00;99.90;;;;;;5013294;28;20498;-65
2024/03/01 05:37:37;;;;;;;81.27;29.80;;;9.00;99.90;;;;;;5017867;28;20465;-64
2024/03/01 05:40:06;;;;;;;74.03;30.43;;;9.00;99.90;;;;;;5023334;28;20499;-64
2024/03/01 05:42:33;;;;;;;74.20;30.27;;;9.40;99.90;;;;;;5020737;28;21011;-65
2024/03/01 05:45:00;;;;;;;76.63;30.30;;;9.00;99.90;;;;;;5012840;28;20537;-64
2024/03/01 05:47:27;;;;;;;69.23;30.10;;;9.10;99.90;;;;;;5012649;28;20477;-65
2024/03/01 05:49:55;;;;;;;68.33;31.37;;;9.10;99.90;;;;;;5012950;28;20498;-64
2024/03/01 05:52:22;;;;;;;88.00;33.57;;;9.10;99.90;;;;;;5020584;28;20551;-65
2024/03/01 05:54:49;;;;;;;66.10;28.30;;;9.10;99.90;;;;;;5012434;28;20527;-64
2024/03/01 05:57:15;;;;;;;79.27;34.87;;;9.10;99.90;;;;;;5020996;28;20450;-65
2024/03/01 05:59:43;;;;;;;70.50;29.87;;;9.20;99.90;;;;;;5012530;28;20454;-64
2024/03/01 06:02:11;;;;;;;69.90;30.50;;;9.20;99.90;;;;;;5011117;28;20483;-64
2024/03/01 06:04:39;;;;;;;74.50;28.43;;;9.10;99.90;;;;;;5012945;28;20485;-65
2024/03/01 06:07:08;;;;;;;80.53;31.20;;;9.20;99.90;;;;;;5013575;28;20496;-65
2024/03/01 06:09:34;;;;;;;68.83;31.30;;;9.20;99.90;;;;;;5026884;28;20473;-64
2024/03/01 06:12:01;;;;;;;81.50;31.30;;;9.20;99.90;;;;;;5020038;28;20460;-65
2024/03/01 06:14:28;;;;;;;74.00;31.67;;;9.10;99.90;;;;;;5012784;28;20977;-65
2024/03/01 06:16:56;;;;;;;66.80;30.97;;;9.10;99.90;;;;;;5012537;28;20575;-65
2024/03/01 06:19:22;;;;;;;84.13;31.67;;;9.10;99.90;;;;;;5003973;28;20446;-65
2024/03/01 06:21:50;;;;;;;70.50;29.10;;;9.10;99.90;;;;;;5011634;28;20488;-65
2024/03/01 06:24:18;;;;;;;79.93;32.20;;;9.10;99.90;;;;;;5012027;28;20442;-64
2024/03/01 06:26:46;;;;;;;86.07;31.47;;;8.70;99.90;;;;;;5011792;28;20441;-65
2024/03/01 06:29:13;;;;;;;74.43;28.67;;;9.20;99.90;;;;;;5011921;28;20449;-65
2024/03/01 06:31:40;;;;;;;71.67;31.70;;;9.20;99.90;;;;;;5012256;28;20488;-64
2024/03/01 06:34:07;;;;;;;75.27;31.10;;;9.20;99.90;;;;;;5012650;28;20555;-64
2024/03/01 06:36:34;;;;;;;73.73;29.33;;;9.20;99.90;;;;;;5013398;28;20576;-64
2024/03/01 06:39:01;;;;;;;71.83;28.30;;;9.20;99.90;;;;;;5013791;28;20536;-64
2024/03/01 06:41:29;;;;;;;67.67;27.93;;;9.20;99.90;;;;;;5020239;28;20469;-65
2024/03/01 06:43:56;;;;;;;78.40;31.30;;;9.20;99.90;;;;;;5012382;28;20552;-64
2024/03/01 06:46:23;;;;;;;77.20;32.07;;;9.20;99.90;;;;;;5004773;28;20514;-65
2024/03/01 06:48:50;;;;;;;72.83;30.57;;;9.20;99.90;;;;;;5012010;28;20810;-64
2024/03/01 06:51:17;;;;;;;82.97;32.60;;;9.20;99.90;;;;;;5011572;28;20953;-65
2024/03/01 06:53:44;;;;;;;75.90;30.60;;;9.20;99.90;;;;;;5010632;28;20634;-65
2024/03/01 06:56:13;;;;;;;76.63;30.73;;;9.20;99.90;;;;;;5011417;28;20578;-65
2024/03/01 06:58:41;;;;;;;75.97;31.13;;;9.20;99.90;;;;;;5016023;28;20458;-64
2024/03/01 07:01:08;;;;;;;67.83;29.23;;;9.20;99.90;;;;;;5011265;28;20548;-64
2024/03/01 07:03:35;;;;;;;76.07;28.47;;;9.30;99.90;;;;;;5010471;28;20637;-50
2024/03/01 07:06:02;;;;;;;74.10;30.07;;;9.30;99.90;;;;;;5005834;28;20459;-52
2024/03/01 07:08:29;;;;;;;69.43;29.50;;;9.30;99.90;;;;;;5007935;28;20472;-56
2024/03/01 07:10:56;;;;;;;70.17;29.57;;;9.20;99.90;;;;;;5009502;28;20529;-48
2024/03/01 07:13:22;;;;;;;74.63;30.53;;;9.10;99.90;;;;;;5012933;28;20510;-54
2024/03/01 07:15:51;;;;;;;68.07;30.17;;;9.10;99.90;;;;;;5015841;28;20556;-55
2024/03/01 07:18:18;;;;;;;81.17;30.60;;;9.10;99.90;;;;;;5011228;28;20449;-65
2024/03/01 07:20:44;;;;;;;72.43;31.30;;;9.20;99.90;;;;;;5007348;28;20448;-65
2024/03/01 07:23:11;;;;;;;69.47;31.77;;;9.20;99.90;;;;;;5008352;28;20469;-65
2024/03/01 07:25:38;;;;;;;72.17;29.07;;;9.10;99.90;;;;;;5007451;28;20448;-65
2024/03/01 07:28:06;;;;;;;89.30;29.50;;;9.00;99.90;;;;;;5009767;28;20537;-64
2024/03/01 07:30:33;;;;;;;78.17;31.27;;;9.00;99.90;;;;;;5007224;28;20465;-64
2024/03/01 07:33:01;;;;;;;80.97;31.43;;;9.00;99.90;;;;;;5006418;28;20469;-64
2024/03/01 07:35:28;;;;;;;72.93;30.73;;;9.00;99.90;;;;;;5010402;28;20519;-63
2024/03/01 07:37:55;;;;;;;71.47;29.87;;;9.00;99.90;;;;;;5009609;28;20849;-64
2024/03/01 07:40:22;;;;;;;71.50;30.60;;;9.00;99.90;;;;;;5009268;28;20442;-64
2024/03/01 07:42:50;;;;;;;67.23;29.10;;;9.10;99.90;;;;;;5008948;28;20958;-64
2024/03/01 07:45:17;;;;;;;77.63;29.53;;;9.00;99.90;;;;;;5009632;28;20821;-64
2024/03/01 07:47:45;;;;;;;72.33;29.50;;;8.90;99.90;;;;;;5008868;28;20553;-64
2024/03/01 07:50:16;;;;;;;63.37;26.67;;;8.90;99.90;;;;;;5004007;28;21054;-64
2024/03/01 07:52:42;;;;;;;70.40;28.67;;;8.80;99.90;;;;;;5015910;28;20464;-64
2024/03/01 07:55:11;;;;;;;83.30;30.20;;;8.90;99.90;;;;;;5008634;28;20532;-65
2024/03/01 07:57:38;;;;;;;72.70;28.50;;;8.90;99.90;;;;;;5009162;28;20787;-64
2024/03/01 08:00:06;;;;;;;63.57;28.43;;;9.00;99.90;;;;;;5007037;28;20445;-64
2024/03/01 08:02:33;;;;;;;72.97;26.77;;;9.00;99.90;;;;;;5013498;28;20456;-64
2024/03/01 08:05:00;;;;;;;77.37;29.40;;;9.10;99.90;;;;;;5014656;28;20500;-64
2024/03/01 08:07:28;;;;;;;68.93;29.50;;;9.10;99.90;;;;;;5014399;28;20520;-64
2024/03/01 08:09:55;;;;;;;73.43;31.00;;;9.10;99.90;;;;;;5030943;28;20753;-64
2024/03/01 08:12:22;;;;;;;61.57;27.50;;;9.10;99.90;;;;;;5013892;28;20571;-63
2024/03/01 08:14:51;;;;;;;79.07;31.60;;;9.20;99.90;;;;;;5014003;28;20533;-64
2024/03/01 08:17:19;;;;;;;77.03;30.50;;;9.30;99.90;;;;;;5013891;28;20580;-64
2024/03/01 08:19:48;;;;;;;77.87;30.33;;;9.30;99.90;;;;;;5014163;28;20448;-65
2024/03/01 08:22:16;;;;;;;66.13;27.63;;;9.40;99.90;;;;;;5015878;28;20473;-64
2024/03/01 08:24:46;;;;;;;77.67;32.17;;;9.40;99.90;;;;;;5019558;28;20442;-64
2024/03/01 08:27:15;;;;;;;81.17;33.17;;;9.40;99.90;;;;;;5014212;28;20437;-65
2024/03/01 08:29:43;;;;;;;75.80;27.90;;;9.30;99.90;;;;;;5013871;28;20483;-64
2024/03/01 08:32:27;;;;;;;72.97;29.60;;;9.30;99.90;;;;;;5013635;28;20827;-64
2024/03/01 08:34:56;;;;;;;66.90;29.80;;;9.30;99.90;;;;;;5013856;28;20473;-64
2024/03/01 08:37:24;;;;;;;82.07;31.70;;;9.30;99.90;;;;;;5013591;28;20481;-64
2024/03/01 08:39:54;;;;;;;72.63;29.73;;;9.30;99.90;;;;;;5019874;28;20550;-64
2024/03/01 08:42:21;;;;;;;74.30;30.77;;;9.40;99.90;;;;;;5013471;28;20462;-65
2024/03/01 08:44:54;;;;;;;65.87;28.37;;;9.40;99.90;;;;;;5013856;28;20605;-65
2024/03/01 08:47:27;;;;;;;77.90;31.20;;;9.40;99.90;;;;;;5013525;28;20461;-64
2024/03/01 08:50:27;;;;;;;75.07;31.00;;;9.40;99.90;;;;;;5013770;28;20489;-64
2024/03/01 08:52:55;;;;;;;75.20;29.70;;;9.40;99.90;;;;;;5015398;28;20564;-65
2024/03/01 08:55:40;;;;;;;60.73;27.53;;;9.50;99.90;;;;;;5012498;28;20503;-65
2024/03/01 08:58:15;;;;;;;63.90;29.40;;;9.50;99.90;;;;;;5013520;28;20480;-64
2024/03/01 09:00:48;;;;;;;75.10;27.40;;;9.50;99.90;;;;;;5013563;28;20448;-64
2024/03/01 09:03:18;;;;;;;67.93;26.13;;;9.50;99.90;;;;;;5012769;28;21012;-64
2024/03/01 09:05:45;;;;;;;69.80;26.97;;;9.50;99.90;;;;;;5013658;28;20812;-64
2024/03/01 09:08:17;;;;;;;57.43;26.83;;;9.60;99.90;;;;;;5013326;28;20861;-65
2024/03/01 09:10:45;;;;;;;61.70;26.27;;;9.60;99.90;;;;;;5012399;28;20461;-64
2024/03/01 09:13:16;;;;;;;69.20;29.40;;;9.60;99.90;;;;;;5020805;28;20529;-64
2024/03/01 09:15:44;;;;;;;62.73;27.60;;;9.60;99.90;;;;;;5013313;28;20532;-65
2024/03/01 09:18:43;;;;;;;53.27;29.30;;;9.60;99.90;;;;;;5014819;28;20448;-67
2024/03/01 09:21:44;;;;;;;72.53;30.57;;;9.60;99.90;;;;;;5023119;28;20476;-64
2024/03/01 09:24:14;;;;;;;60.17;26.33;;;9.60;99.90;;;;;;5003643;28;20481;-65
2024/03/01 09:26:43;;;;;;;54.83;27.47;;;9.70;99.90;;;;;;5014992;28;20437;-63
2024/03/01 09:29:30;;;;;;;64.93;29.33;;;9.90;99.90;;;;;;5015433;28;20433;-64
2024/03/01 09:31:59;;;;;;;60.20;28.90;;;10.10;99.90;;;;;;5019466;28;20454;-65
2024/03/01 09:34:31;;;;;;;62.63;26.83;;;10.20;99.90;;;;;;5014039;28;20927;-65
2024/03/01 09:36:58;;;;;;;57.90;26.70;;;10.20;99.90;;;;;;5013802;28;20989;-64
2024/03/01 09:39:25;;;;;;;45.70;23.23;;;10.20;99.90;;;;;;5013062;28;20442;-64
2024/03/01 09:42:13;;;;;;;46.40;21.23;;;10.40;99.90;;;;;;5012587;28;20519;-65
2024/03/01 09:44:53;;;;;;;41.77;22.37;;;10.70;99.90;;;;;;5013640;28;21056;-65
2024/03/01 09:47:34;;;;;;;48.50;23.40;;;10.80;99.90;;;;;;5012683;28;20492;-64
2024/03/01 09:50:15;;;;;;;39.00;20.97;;;10.80;99.90;;;;;;5010942;28;20461;-64
2024/03/01 09:52:50;;;;;;;46.67;24.20;;;10.70;99.90;;;;;;5012326;28;20541;-65
2024/03/01 09:55:27;;;;;;;46.93;24.07;;;10.70;99.90;;;;;;5012561;28;20533;-65
2024/03/01 09:58:08;;;;;;;46.27;21.10;;;10.70;99.90;;;;;;5012489;28;20477;-65
2024/03/01 10:00:46;;;;;;;42.70;22.07;;;10.90;99.90;;;;;;5014131;28;20465;-65
2024/03/01 10:03:26;;;;;;;35.53;19.77;;;11.00;99.90;;;;;;5013490;28;20465;-64
2024/03/01 10:06:11;;;;;;;57.00;23.47;;;11.10;99.90;;;;;;5013450;28;20461;-64
2024/03/01 10:08:52;;;;;;;41.67;21.43;;;11.40;99.90;;;;;;5012449;28;20485;-64
2024/03/01 10:11:28;;;;;;;45.97;21.30;;;11.60;99.90;;;;;;5013290;28;20892;-65
2024/03/01 10:14:03;;;;;;;47.40;23.93;;;11.70;99.90;;;;;;5012197;28;21007;-65
2024/03/01 10:17:00;;;;;;;45.10;21.70;;;11.80;99.90;;;;;;5019945;28;20472;-64
2024/03/01 10:19:52;;;;;;;51.83;21.77;;;11.60;99.90;;;;;;5010650;28;20469;-65
2024/03/01 10:22:31;;;;;;;39.17;20.20;;;11.70;99.90;;;;;;5011496;28;20466;-64
2024/03/01 10:25:22;;;;;;;41.07;22.23;;;11.70;99.90;;;;;;5020210;28;20444;-64
2024/03/01 10:27:52;;;;;;;41.60;22.23;;;11.80;99.90;;;;;;5011901;28;20933;-64
2024/03/01 10:30:25;;;;;;;44.63;22.23;;;11.80;99.90;;;;;;5012016;28;20446;-64
2024/03/01 10:33:26;;;;;;;39.47;20.47;;;11.70;99.90;;;;;;5018524;28;20475;-65
2024/03/01 10:36:12;;;;;;;39.53;19.10;;;11.80;99.90;;;;;;4978498;28;20859;-64
2024/03/01 10:38:51;;;;;;;36.17;19.50;;;12.00;99.90;;;;;;5005582;28;20465;-64
2024/03/01 10:41:25;;;;;;;41.20;20.30;;;12.20;99.90;;;;;;5010403;28;20480;-65
2024/03/01 10:44:12;;;;;;;49.43;21.93;;;12.40;99.90;;;;;;5009956;28;20551;-64
2024/03/01 10:46:50;;;;;;;43.50;22.37;;;12.50;99.90;;;;;;5010330;28;20470;-65
2024/03/01 10:49:26;;;;;;;45.17;21.30;;;12.50;99.90;;;;;;5011523;28;20533;-65
2024/03/01 10:51:59;;;;;;;37.43;21.40;;;12.70;99.90;;;;;;5019135;28;20671;-64
2024/03/01 10:54:29;;;;;;;47.00;21.70;;;12.70;99.90;;;;;;5017624;28;20449;-64
2024/03/01 10:56:58;;;;;;;42.20;21.57;;;12.70;99.90;;;;;;5011635;28;20547;-64
2024/03/01 10:59:33;;;;;;;35.50;19.43;;;12.60;99.90;;;;;;5003824;28;20519;-65
2024/03/01 11:02:11;;;;;;;35.30;20.03;;;12.50;99.90;;;;;;5019393;28;20532;-64
2024/03/01 11:04:44;;;;;;;40.90;19.67;;;12.30;99.90;;;;;;5011664;28;20805;-65
2024/03/01 11:07:22;;;;;;;41.20;19.30;;;12.20;99.90;;;;;;5019902;28;20575;-64
2024/03/01 11:09:57;;;;;;;37.03;22.10;;;12.20;99.90;;;;;;5011815;28;20434;-64
2024/03/01 11:12:35;;;;;;;42.97;21.50;;;12.10;99.90;;;;;;5011767;28;20839;-64
2024/03/01 11:15:07;;;;;;;36.30;20.07;;;12.10;99.90;;;;;;5019537;28;20441;-64
2024/03/01 11:17:38;;;;;;;42.60;23.17;;;12.00;99.90;;;;;;5011093;28;20479;-65
2024/03/01 11:20:10;;;;;;;42.60;21.43;;;11.80;99.90;;;;;;5011455;28;20830;-64
2024/03/01 11:22:40;;;;;;;36.60;20.33;;;11.90;99.90;;;;;;5010897;28;20465;-63
2024/03/01 11:25:11;;;;;;;41.80;22.50;;;11.90;99.90;;;;;;5011241;28;20446;-64
2024/03/01 11:27:45;;;;;;;38.20;21.97;;;11.90;99.90;;;;;;5014516;28;20430;-65
2024/03/01 11:30:14;;;;;;;37.60;20.40;;;11.90;99.90;;;;;;5023490;28;20444;-65
2024/03/01 11:32:45;;;;;;;40.73;21.60;;;11.90;99.90;;;;;;5015022;28;20532;-65
2024/03/01 11:35:19;;;;;;;41.90;22.30;;;12.00;99.90;;;;;;5017057;28;20812;-65
2024/03/01 11:38:02;;;;;;;47.80;23.10;;;12.00;99.90;;;;;;5023772;28;20567;-65
2024/03/01 11:40:41;;;;;;;47.10;22.30;;;12.00;99.90;;;;;;5021538;28;20500;-65
2024/03/01 11:43:25;;;;;;;39.03;21.93;;;11.90;99.90;;;;;;5010177;28;21094;-64
2024/03/01 11:46:11;;;;;;;37.90;21.67;;;11.90;99.90;;;;;;5014064;28;20893;-65
2024/03/01 11:48:50;;;;;;;42.80;21.90;;;11.90;99.90;;;;;;5012591;28;20437;-65
2024/03/01 11:51:27;;;;;;;41.47;22.90;;;11.90;99.90;;;;;;5013338;28;20459;-65
2024/03/01 11:54:12;;;;;;;37.77;21.97;;;11.80;99.90;;;;;;5012937;28;20523;-65
2024/03/01 11:56:50;;;;;;;49.60;24.00;;;11.80;99.90;;;;;;5014542;28;20480;-65
2024/03/01 11:59:34;;;;;;;48.00;24.67;;;11.90;99.90;;;;;;5014721;28;20437;-65
2024/03/01 12:02:16;;;;;;;39.93;21.83;;;11.90;99.90;;;;;;5022285;28;20445;-65
2024/03/01 12:04:58;;;;;;;42.93;22.23;;;11.90;99.90;;;;;;5015429;28;20568;-65
2024/03/01 12:07:39;;;;;;;41.27;21.33;;;11.60;99.90;;;;;;5015086;28;20477;-65
2024/03/01 12:10:18;;;;;;;45.33;23.00;;;11.90;99.90;;;;;;5015434;28;20445;-64
2024/03/01 12:12:48;;;;;;;42.87;23.80;;;11.80;99.90;;;;;;5023808;28;20469;-63
2024/03/01 12:15:19;;;;;;;45.53;23.50;;;11.80;99.90;;;;;;5023675;28;20504;-64
2024/03/01 12:17:57;;;;;;;36.80;21.17;;;11.90;99.90;;;;;;5014497;28;20564;-64
2024/03/01 12:20:29;;;;;;;40.53;19.93;;;12.00;99.90;;;;;;5017963;28;20451;-65
2024/03/01 12:23:07;;;;;;;39.40;20.47;;;11.90;99.90;;;;;;5017988;28;20995;-64
2024/03/01 12:25:36;;;;;;;41.63;21.07;;;12.00;99.90;;;;;;5021738;28;20469;-64
2024/03/01 12:28:13;;;;;;;45.90;23.77;;;11.90;99.90;;;;;;5014645;28;20441;-65
2024/03/01 12:30:47;;;;;;;39.27;20.47;;;11.80;99.90;;;;;;5020699;28;20442;-64
2024/03/01 12:33:33;;;;;;;33.43;20.97;;;11.70;99.90;;;;;;5022378;28;20481;-64
2024/03/01 12:36:08;;;;;;;39.40;22.90;;;11.70;99.90;;;;;;5014630;28;20456;-64
2024/03/01 12:38:40;;;;;;;49.23;22.57;;;11.70;99.90;;;;;;5014155;28;20480;-64
2024/03/01 12:41:20;;;;;;;38.40;21.27;;;11.70;99.90;;;;;;5014144;28;20484;-64
2024/03/01 12:44:08;;;;;;;44.73;22.00;;;11.60;99.90;;;;;;5024679;28;20550;-64
2024/03/01 12:46:56;;;;;;;40.20;21.40;;;11.70;99.90;;;;;;5013335;28;20978;-63
2024/03/01 12:49:34;;;;;;;41.20;20.60;;;11.70;99.90;;;;;;5011833;28;20953;-64
2024/03/01 12:52:16;;;;;;;48.00;23.17;;;11.70;99.90;;;;;;5013386;28;20448;-65